createdAt,value
2018-11-01T00:04:34.052Z,55.38
2018-11-01T00:09:52.613Z,54.52
2018-11-01T00:15:12.830Z,53.81
2018-11-01T00:20:32.058Z,54.84
2018-11-01T00:25:50.630Z,54.63
2018-11-01T00:31:09.299Z,53.43
2018-11-01T00:36:28.164Z,53.85
2018-11-01T00:41:46.697Z,54.81
2018-11-01T00:47:05.305Z,55.17
2018-11-01T00:52:24.057Z,56.11
2018-11-01T00:57:42.973Z,56.52
2018-11-01T01:03:01.508Z,55.03
2018-11-01T01:08:20.698Z,56.51
2018-11-01T01:13:39.287Z,57.39
2018-11-01T01:18:57.916Z,58.23
2018-11-01T01:24:16.476Z,58.66
2018-11-01T01:29:35.044Z,59.41
2018-11-01T01:34:54.190Z,59.13
2018-11-01T01:40:13.002Z,60.93
2018-11-01T01:45:31.634Z,62.39
2018-11-01T01:50:50.265Z,61.17
2018-11-01T01:56:08.845Z,62.05
2018-11-01T02:01:27.486Z,61.87
2018-11-01T02:06:46.998Z,61.57
2018-11-01T02:12:05.620Z,61.91
2018-11-01T02:17:24.175Z,61.66
2018-11-01T02:22:43.677Z,63.25
2018-11-01T02:28:07.452Z,61.29
2018-11-01T02:33:26.071Z,61.17
2018-11-01T02:38:44.826Z,60.60
2018-11-01T02:44:04.243Z,59.69
2018-11-01T02:49:22.874Z,59.34
2018-11-01T02:54:41.557Z,60.91
2018-11-01T03:00:00.276Z,60.82
2018-11-01T03:05:19.300Z,60.71
2018-11-01T03:10:38.404Z,60.59
2018-11-01T03:15:58.745Z,60.99
2018-11-01T03:21:17.320Z,60.36
2018-11-01T03:26:36.045Z,61.07
2018-11-01T03:31:54.596Z,62.18
2018-11-01T03:37:13.260Z,63.31
2018-11-01T03:42:31.874Z,63.05
2018-11-01T03:47:50.959Z,63.05
2018-11-01T03:53:09.537Z,62.95
2018-11-01T03:58:28.119Z,63.48
2018-11-01T04:03:46.768Z,63.73
2018-11-01T04:09:09.141Z,64.17
2018-11-01T04:14:27.746Z,65.33
2018-11-01T04:19:46.336Z,66.42
2018-11-01T04:25:05.903Z,66.86
2018-11-01T04:30:26.657Z,67.64
2018-11-01T04:35:45.848Z,68.26
2018-11-01T04:41:04.518Z,68.67
2018-11-01T04:46:24.003Z,69.24
2018-11-01T04:51:42.710Z,68.90
2018-11-01T04:57:01.438Z,68.66
2018-11-01T05:02:20.023Z,67.69
2018-11-01T05:07:38.984Z,67.53
2018-11-01T05:12:57.648Z,68.07
2018-11-01T05:18:16.286Z,68.68
2018-11-01T05:23:34.951Z,68.72
2018-11-01T05:28:53.556Z,67.85
2018-11-01T05:34:12.545Z,68.29
2018-11-01T05:39:33.239Z,68.00
2018-11-01T05:44:52.489Z,67.69
2018-11-01T05:50:12.576Z,67.94
2018-11-01T05:55:31.176Z,69.06
2018-11-01T06:00:50.254Z,69.67
2018-11-01T06:06:09.927Z,69.93
2018-11-01T06:11:29.080Z,69.64
2018-11-01T06:16:47.751Z,70.84
2018-11-01T06:22:06.571Z,70.78
2018-11-01T06:27:25.451Z,70.98
2018-11-01T06:32:45.496Z,71.63
2018-11-01T06:38:04.070Z,72.79
2018-11-01T06:43:23.103Z,72.88
2018-11-01T06:48:42.041Z,73.76
2018-11-01T06:54:00.599Z,73.07
2018-11-01T06:59:19.433Z,72.46
2018-11-01T07:04:38.154Z,72.34
2018-11-01T07:09:57.384Z,71.90
2018-11-01T07:15:16.791Z,70.67
2018-11-01T07:20:35.420Z,70.46
2018-11-01T07:25:54.277Z,70.75
2018-11-01T07:31:12.914Z,70.29
2018-11-01T07:36:31.520Z,71.19
2018-11-01T07:41:50.087Z,71.24
2018-11-01T07:47:09.781Z,71.69
2018-11-01T07:52:28.475Z,71.02
2018-11-01T07:57:47.032Z,71.26
2018-11-01T08:03:05.572Z,71.98
2018-11-01T08:08:24.146Z,71.40
2018-11-01T08:13:42.855Z,70.40
2018-11-01T08:19:03.776Z,70.65
2018-11-01T08:24:22.510Z,70.78
2018-11-01T08:29:41.923Z,71.24
2018-11-01T08:35:00.584Z,71.38
2018-11-01T08:40:19.200Z,70.05
2018-11-01T08:45:37.806Z,68.12
2018-11-01T08:50:56.538Z,69.51
2018-11-01T08:56:15.329Z,69.15
2018-11-01T09:01:34.883Z,68.84
2018-11-01T09:06:54.227Z,68.17
2018-11-01T09:12:13.084Z,68.73
2018-11-01T09:17:32.103Z,68.86
2018-11-01T09:22:52.035Z,68.52
2018-11-01T09:28:11.106Z,69.41
2018-11-01T09:33:29.675Z,68.00
2018-11-01T09:38:48.859Z,69.30
2018-11-01T09:44:08.127Z,68.43
2018-11-01T09:49:27.443Z,69.88
2018-11-01T09:54:46.078Z,67.58
2018-11-01T10:00:06.770Z,67.79
2018-11-01T10:05:25.466Z,68.67
2018-11-01T10:10:44.183Z,68.74
2018-11-01T10:16:03.582Z,67.91
2018-11-01T10:21:22.300Z,65.70
2018-11-01T10:26:40.853Z,67.04
2018-11-01T10:32:00.301Z,66.32
2018-11-01T10:37:19.732Z,67.15
2018-11-01T10:42:39.636Z,66.85
2018-11-01T10:47:58.229Z,66.86
2018-11-01T10:53:16.808Z,66.33
2018-11-01T10:58:35.394Z,66.96
2018-11-01T11:03:53.994Z,66.63
2018-11-01T11:09:12.675Z,66.16
2018-11-01T11:14:32.217Z,65.76
2018-11-01T11:19:51.543Z,66.39
2018-11-01T11:25:11.511Z,66.77
2018-11-01T11:30:30.258Z,67.00
2018-11-01T11:35:48.924Z,66.58
2018-11-01T11:41:07.492Z,67.52
2018-11-01T11:46:27.474Z,70.33
2018-11-01T11:51:46.040Z,72.36
2018-11-01T11:57:06.034Z,70.38
2018-11-01T12:02:24.665Z,68.62
2018-11-01T12:07:43.207Z,68.79
2018-11-01T12:13:01.802Z,67.53
2018-11-01T12:18:20.924Z,67.82
2018-11-01T12:23:39.516Z,67.58
2018-11-01T12:28:59.886Z,67.99
2018-11-01T12:34:18.682Z,68.64
2018-11-01T12:39:37.460Z,69.42
2018-11-01T12:44:56.080Z,70.77
2018-11-01T12:50:15.038Z,69.18
2018-11-01T12:55:33.548Z,67.46
2018-11-01T13:00:52.138Z,68.56
2018-11-01T13:06:10.915Z,68.36
2018-11-01T13:11:30.348Z,68.91
2018-11-01T13:16:51.409Z,69.60
2018-11-01T13:22:13.285Z,69.65
2018-11-01T13:27:32.214Z,70.99
2018-11-01T13:32:51.558Z,71.55
2018-11-01T13:38:10.210Z,72.69
2018-11-01T13:43:29.288Z,73.69
2018-11-01T13:48:47.902Z,74.82
2018-11-01T13:54:06.719Z,74.80
2018-11-01T13:59:25.840Z,76.31
2018-11-01T14:04:44.528Z,78.82
2018-11-01T14:10:03.351Z,80.22
2018-11-01T14:15:22.258Z,81.17
2018-11-01T14:20:40.764Z,80.19
2018-11-01T14:25:59.308Z,82.68
2018-11-01T14:31:18.038Z,81.07
2018-11-01T14:36:37.518Z,82.34
2018-11-01T14:41:56.856Z,83.76
2018-11-01T14:47:16.728Z,83.03
2018-11-01T14:52:35.877Z,82.98
2018-11-01T14:57:55.227Z,83.41
2018-11-01T15:03:22.397Z,84.78
2018-11-01T15:08:40.920Z,85.09
2018-11-01T15:13:59.491Z,85.37
2018-11-01T15:19:18.093Z,85.47
2018-11-01T15:24:41.910Z,85.89
2018-11-01T15:30:00.720Z,86.22
2018-11-01T15:35:24.066Z,87.47
2018-11-01T15:40:42.823Z,87.21
2018-11-01T15:46:02.614Z,88.17
2018-11-01T15:51:21.170Z,88.71
2018-11-01T15:56:39.988Z,88.81
2018-11-01T16:02:02.839Z,89.61
2018-11-01T16:07:21.597Z,90.04
2018-11-01T16:12:40.459Z,89.51
2018-11-01T16:18:00.057Z,89.06
2018-11-01T16:23:18.613Z,89.62
2018-11-01T16:28:37.135Z,90.08
2018-11-01T16:33:55.715Z,90.22
2018-11-01T16:39:14.290Z,90.24
2018-11-01T16:44:32.824Z,90.10
2018-11-01T16:49:51.408Z,89.86
2018-11-01T16:55:10.280Z,90.39
2018-11-01T17:00:28.938Z,90.12
2018-11-01T17:05:47.372Z,90.18
2018-11-01T17:11:05.933Z,90.00
2018-11-01T17:16:24.603Z,89.98
2018-11-01T17:21:43.197Z,90.12
2018-11-01T17:27:06.071Z,90.09
2018-11-01T17:32:30.564Z,89.51
2018-11-01T17:37:49.137Z,89.73
2018-11-01T17:43:07.805Z,90.43
2018-11-01T17:48:26.294Z,90.66
2018-11-01T17:53:44.979Z,90.66
2018-11-01T17:59:03.711Z,90.49
2018-11-01T18:04:22.335Z,90.43
2018-11-01T18:09:41.058Z,90.63
2018-11-01T18:14:59.721Z,91.47
2018-11-01T18:20:18.650Z,91.67
2018-11-01T18:25:42.477Z,91.45
2018-11-01T18:31:01.227Z,91.34
2018-11-01T18:36:19.742Z,91.39
2018-11-01T18:41:38.283Z,91.77
2018-11-01T18:46:56.863Z,91.13
2018-11-01T18:52:15.386Z,90.99
2018-11-01T18:57:34.012Z,90.43
2018-11-01T19:02:52.548Z,90.37
2018-11-01T19:08:11.113Z,90.24
2018-11-01T19:13:29.684Z,90.13
2018-11-01T19:18:48.170Z,89.83
2018-11-01T19:24:06.801Z,90.26
2018-11-01T19:29:25.604Z,90.25
2018-11-01T19:34:44.218Z,90.50
2018-11-01T19:40:02.727Z,89.92
2018-11-01T19:45:21.215Z,90.43
2018-11-01T19:50:40.499Z,89.38
2018-11-01T19:55:59.384Z,89.39
2018-11-01T20:01:18.023Z,88.39
2018-11-01T20:06:37.030Z,88.27
2018-11-01T20:11:56.216Z,88.36
2018-11-01T20:17:14.729Z,88.26
2018-11-01T20:22:33.286Z,88.23
2018-11-01T20:27:52.934Z,88.10
2018-11-01T20:33:14.036Z,87.75
2018-11-01T20:38:32.802Z,87.06
2018-11-01T20:43:51.303Z,87.15
2018-11-01T20:49:11.017Z,87.33
2018-11-01T20:54:29.567Z,88.53
2018-11-01T20:59:48.955Z,88.58
2018-11-01T21:05:07.971Z,88.07
2018-11-01T21:10:26.527Z,88.12
2018-11-01T21:15:45.533Z,88.04
2018-11-01T21:21:04.122Z,87.98
2018-11-01T21:26:22.749Z,88.23
2018-11-01T21:31:41.725Z,87.77
2018-11-01T21:37:00.744Z,87.87
2018-11-01T21:42:19.388Z,88.05
2018-11-01T21:47:37.933Z,88.35
2018-11-01T21:52:57.113Z,87.80
2018-11-01T21:58:15.623Z,87.45
2018-11-01T22:03:34.352Z,87.96
2018-11-01T22:08:53.087Z,87.39
2018-11-01T22:14:11.631Z,86.76
2018-11-01T22:19:30.185Z,87.63
2018-11-01T22:24:48.742Z,87.77
2018-11-01T22:30:09.203Z,87.14
2018-11-01T22:35:28.078Z,87.14
2018-11-01T22:40:46.951Z,87.11
2018-11-01T22:46:05.697Z,86.69
2018-11-01T22:51:24.191Z,87.10
2018-11-01T22:56:42.693Z,88.33
2018-11-01T23:02:01.308Z,88.92
2018-11-01T23:07:19.809Z,89.13
2018-11-01T23:12:38.510Z,88.21
2018-11-01T23:17:57.015Z,88.16
2018-11-01T23:23:16.176Z,89.04
2018-11-01T23:28:34.719Z,89.04
2018-11-01T23:33:53.281Z,88.00
2018-11-01T23:39:17.172Z,88.57
2018-11-01T23:44:40.877Z,87.27
2018-11-01T23:50:08.463Z,87.05
2018-11-01T23:55:26.918Z,87.49
